sensor_id;sensor_type;location;lat;lon;timestamp;temperature;humidity
27645;DHT22;15054;57.152;-2.118;2022-09-09T00:07:14;14.30;99.90
27645;DHT22;15054;57.152;-2.118;2022-09-09T00:10:34;14.40;99.90
27645;DHT22;15054;57.152;-2.118;2022-09-09T00:15:38;14.30;99.90
27645;DHT22;15054;57.152;-2.118;2022-09-09T00:18:20;14.40;99.90
27645;DHT22;15054;57.152;-2.118;2022-09-09T00:21:08;14.40;99.90
27645;DHT22;15054;57.152;-2.118;2022-09-09T00:23:39;14.40;99.90
27645;DHT22;15054;57.152;-2.118;2022-09-09T00:26:32;14.40;99.90
27645;DHT22;15054;57.152;-2.118;2022-09-09T00:31:54;14.40;99.90
27645;DHT22;15054;57.152;-2.118;2022-09-09T00:34:24;14.40;99.90
27645;DHT22;15054;57.152;-2.118;2022-09-09T00:36:53;14.30;99.90
27645;DHT22;15054;57.152;-2.118;2022-09-09T00:39:31;14.30;99.90
27645;DHT22;15054;57.152;-2.118;2022-09-09T00:44:36;14.30;99.90
27645;DHT22;15054;57.152;-2.118;2022-09-09T00:58:37;14.20;99.90
27645;DHT22;15054;57.152;-2.118;2022-09-09T01:01:10;14.20;99.90
27645;DHT22;15054;57.152;-2.118;2022-09-09T01:03:50;14.20;99.90
27645;DHT22;15054;57.152;-2.118;2022-09-09T01:12:17;14.20;99.90
27645;DHT22;15054;57.152;-2.118;2022-09-09T01:14:52;14.20;99.90
27645;DHT22;15054;57.152;-2.118;2022-09-09T01:17:31;14.20;99.90
27645;DHT22;15054;57.152;-2.118;2022-09-09T01:20:29;14.20;99.90
27645;DHT22;15054;57.152;-2.118;2022-09-09T01:28:51;14.20;99.90
27645;DHT22;15054;57.152;-2.118;2022-09-09T01:31:34;14.10;99.90
27645;DHT22;15054;57.152;-2.118;2022-09-09T01:34:14;14.20;99.90
27645;DHT22;15054;57.152;-2.118;2022-09-09T01:39:20;14.20;99.90
27645;DHT22;15054;57.152;-2.118;2022-09-09T01:41:57;14.20;99.90
27645;DHT22;15054;57.152;-2.118;2022-09-09T01:44:25;14.20;99.90
27645;DHT22;15054;57.152;-2.118;2022-09-09T01:46:53;14.20;99.90
27645;DHT22;15054;57.152;-2.118;2022-09-09T01:49:22;14.20;99.90
27645;DHT22;15054;57.152;-2.118;2022-09-09T01:51:53;14.20;99.90
27645;DHT22;15054;57.152;-2.118;2022-09-09T01:54:30;14.20;99.90
27645;DHT22;15054;57.152;-2.118;2022-09-09T02:00:26;14.20;99.90
27645;DHT22;15054;57.152;-2.118;2022-09-09T02:02:56;14.20;99.90
27645;DHT22;15054;57.152;-2.118;2022-09-09T02:06:06;14.20;99.90
27645;DHT22;15054;57.152;-2.118;2022-09-09T02:08:42;14.20;99.90
27645;DHT22;15054;57.152;-2.118;2022-09-09T02:11:16;14.20;99.90
27645;DHT22;15054;57.152;-2.118;2022-09-09T02:14:00;14.20;99.90
27645;DHT22;15054;57.152;-2.118;2022-09-09T02:19:11;14.20;99.90
27645;DHT22;15054;57.152;-2.118;2022-09-09T02:21:55;14.10;99.90
27645;DHT22;15054;57.152;-2.118;2022-09-09T02:24:23;14.10;99.90
27645;DHT22;15054;57.152;-2.118;2022-09-09T02:27:02;14.10;99.90
27645;DHT22;15054;57.152;-2.118;2022-09-09T02:29:34;14.00;99.90
27645;DHT22;15054;57.152;-2.118;2022-09-09T02:32:06;14.00;99.90
27645;DHT22;15054;57.152;-2.118;2022-09-09T02:34:42;14.00;99.90
27645;DHT22;15054;57.152;-2.118;2022-09-09T02:37:12;14.10;99.90
27645;DHT22;15054;57.152;-2.118;2022-09-09T02:39:45;14.10;99.90
27645;DHT22;15054;57.152;-2.118;2022-09-09T02:42:17;14.10;99.90
27645;DHT22;15054;57.152;-2.118;2022-09-09T02:44:44;14.10;99.90
27645;DHT22;15054;57.152;-2.118;2022-09-09T02:47:17;14.10;99.90
27645;DHT22;15054;57.152;-2.118;2022-09-09T02:54:59;14.10;99.90
27645;DHT22;15054;57.152;-2.118;2022-09-09T02:57:28;14.10;99.90
27645;DHT22;15054;57.152;-2.118;2022-09-09T02:59:58;14.10;99.90
27645;DHT22;15054;57.152;-2.118;2022-09-09T03:02:25;14.10;99.90
27645;DHT22;15054;57.152;-2.118;2022-09-09T03:04:59;14.10;99.90
27645;DHT22;15054;57.152;-2.118;2022-09-09T03:07:26;14.10;99.90
27645;DHT22;15054;57.152;-2.118;2022-09-09T03:09:54;14.00;99.90
27645;DHT22;15054;57.152;-2.118;2022-09-09T03:12:25;14.00;99.90
27645;DHT22;15054;57.152;-2.118;2022-09-09T03:14:52;14.00;99.90
27645;DHT22;15054;57.152;-2.118;2022-09-09T03:17:19;14.00;99.90
27645;DHT22;15054;57.152;-2.118;2022-09-09T03:19:51;14.00;99.90
27645;DHT22;15054;57.152;-2.118;2022-09-09T03:22:21;14.00;99.90
27645;DHT22;15054;57.152;-2.118;2022-09-09T03:24:50;14.00;99.90
27645;DHT22;15054;57.152;-2.118;2022-09-09T03:27:18;14.00;99.90
27645;DHT22;15054;57.152;-2.118;2022-09-09T03:29:46;14.00;99.90
27645;DHT22;15054;57.152;-2.118;2022-09-09T03:32:19;14.00;99.90
27645;DHT22;15054;57.152;-2.118;2022-09-09T03:34:49;14.00;99.90
27645;DHT22;15054;57.152;-2.118;2022-09-09T03:37:19;14.00;99.90
27645;DHT22;15054;57.152;-2.118;2022-09-09T03:39:49;14.00;99.90
27645;DHT22;15054;57.152;-2.118;2022-09-09T03:42:17;13.90;99.90
27645;DHT22;15054;57.152;-2.118;2022-09-09T03:44:48;13.90;99.90
27645;DHT22;15054;57.152;-2.118;2022-09-09T03:47:22;13.90;99.90
27645;DHT22;15054;57.152;-2.118;2022-09-09T03:49:53;13.90;99.90
27645;DHT22;15054;57.152;-2.118;2022-09-09T03:52:20;13.90;99.90
27645;DHT22;15054;57.152;-2.118;2022-09-09T03:54:51;13.90;99.90
27645;DHT22;15054;57.152;-2.118;2022-09-09T03:57:19;13.90;99.90
27645;DHT22;15054;57.152;-2.118;2022-09-09T03:59:46;13.90;99.90
27645;DHT22;15054;57.152;-2.118;2022-09-09T04:02:14;13.90;99.90
27645;DHT22;15054;57.152;-2.118;2022-09-09T04:04:42;13.90;99.90
27645;DHT22;15054;57.152;-2.118;2022-09-09T04:07:09;13.90;99.90
27645;DHT22;15054;57.152;-2.118;2022-09-09T04:09:39;13.90;99.90
27645;DHT22;15054;57.152;-2.118;2022-09-09T04:12:06;13.90;99.90
27645;DHT22;15054;57.152;-2.118;2022-09-09T04:14:34;13.90;99.90
27645;DHT22;15054;57.152;-2.118;2022-09-09T04:17:03;13.90;99.90
27645;DHT22;15054;57.152;-2.118;2022-09-09T04:19:33;13.90;99.90
27645;DHT22;15054;57.152;-2.118;2022-09-09T04:22:01;13.80;99.90
27645;DHT22;15054;57.152;-2.118;2022-09-09T04:24:28;13.90;99.90
27645;DHT22;15054;57.152;-2.118;2022-09-09T04:26:57;13.80;99.90
27645;DHT22;15054;57.152;-2.118;2022-09-09T04:29:24;13.80;99.90
27645;DHT22;15054;57.152;-2.118;2022-09-09T04:31:51;13.80;99.90
27645;DHT22;15054;57.152;-2.118;2022-09-09T04:34:20;13.80;99.90
27645;DHT22;15054;57.152;-2.118;2022-09-09T04:36:48;13.80;99.90
27645;DHT22;15054;57.152;-2.118;2022-09-09T04:39:15;13.80;99.90
27645;DHT22;15054;57.152;-2.118;2022-09-09T04:41:43;13.80;99.90
27645;DHT22;15054;57.152;-2.118;2022-09-09T04:44:10;13.80;99.90
27645;DHT22;15054;57.152;-2.118;2022-09-09T04:46:38;13.80;99.90
27645;DHT22;15054;57.152;-2.118;2022-09-09T04:49:05;13.80;99.90
27645;DHT22;15054;57.152;-2.118;2022-09-09T04:51:33;13.80;99.90
27645;DHT22;15054;57.152;-2.118;2022-09-09T04:54:01;13.70;99.90
27645;DHT22;15054;57.152;-2.118;2022-09-09T04:56:30;13.80;99.90
27645;DHT22;15054;57.152;-2.118;2022-09-09T04:58:58;13.70;99.90
27645;DHT22;15054;57.152;-2.118;2022-09-09T05:01:35;13.70;99.90
27645;DHT22;15054;57.152;-2.118;2022-09-09T05:04:04;13.70;99.90
27645;DHT22;15054;57.152;-2.118;2022-09-09T05:06:33;13.70;99.90
27645;DHT22;15054;57.152;-2.118;2022-09-09T05:09:01;13.70;99.90
27645;DHT22;15054;57.152;-2.118;2022-09-09T05:11:31;13.70;99.90
27645;DHT22;15054;57.152;-2.118;2022-09-09T05:14:19;13.80;99.90
27645;DHT22;15054;57.152;-2.118;2022-09-09T05:16:46;13.80;99.90
27645;DHT22;15054;57.152;-2.118;2022-09-09T05:19:14;13.80;99.90
27645;DHT22;15054;57.152;-2.118;2022-09-09T05:21:46;13.80;99.90
27645;DHT22;15054;57.152;-2.118;2022-09-09T05:24:17;13.80;99.90
27645;DHT22;15054;57.152;-2.118;2022-09-09T05:26:46;13.90;99.90
27645;DHT22;15054;57.152;-2.118;2022-09-09T05:29:13;13.90;99.90
27645;DHT22;15054;57.152;-2.118;2022-09-09T05:31:40;13.90;99.90
27645;DHT22;15054;57.152;-2.118;2022-09-09T05:34:12;13.90;99.90
27645;DHT22;15054;57.152;-2.118;2022-09-09T05:36:39;13.90;99.90
27645;DHT22;15054;57.152;-2.118;2022-09-09T05:39:07;13.90;99.90
27645;DHT22;15054;57.152;-2.118;2022-09-09T05:41:34;13.90;99.90
27645;DHT22;15054;57.152;-2.118;2022-09-09T05:44:03;13.90;99.90
27645;DHT22;15054;57.152;-2.118;2022-09-09T05:46:35;13.90;99.90
27645;DHT22;15054;57.152;-2.118;2022-09-09T05:49:02;13.90;99.90
27645;DHT22;15054;57.152;-2.118;2022-09-09T05:51:31;13.90;99.90
27645;DHT22;15054;57.152;-2.118;2022-09-09T05:54:05;13.90;99.90
27645;DHT22;15054;57.152;-2.118;2022-09-09T05:56:36;13.90;99.90
27645;DHT22;15054;57.152;-2.118;2022-09-09T05:59:07;13.90;99.90
27645;DHT22;15054;57.152;-2.118;2022-09-09T06:01:36;13.90;99.90
27645;DHT22;15054;57.152;-2.118;2022-09-09T06:04:12;14.00;99.90
27645;DHT22;15054;57.152;-2.118;2022-09-09T06:06:40;14.00;99.90
27645;DHT22;15054;57.152;-2.118;2022-09-09T06:09:15;14.00;99.90
27645;DHT22;15054;57.152;-2.118;2022-09-09T06:11:43;14.00;99.90
27645;DHT22;15054;57.152;-2.118;2022-09-09T06:14:12;14.00;99.90
27645;DHT22;15054;57.152;-2.118;2022-09-09T06:16:40;14.00;99.90
27645;DHT22;15054;57.152;-2.118;2022-09-09T06:19:17;14.00;99.90
27645;DHT22;15054;57.152;-2.118;2022-09-09T06:21:44;14.00;99.90
27645;DHT22;15054;57.152;-2.118;2022-09-09T06:24:12;14.00;99.90
27645;DHT22;15054;57.152;-2.118;2022-09-09T06:26:41;14.00;99.90
27645;DHT22;15054;57.152;-2.118;2022-09-09T06:29:11;14.00;99.90
27645;DHT22;15054;57.152;-2.118;2022-09-09T06:31:40;14.10;99.90
27645;DHT22;15054;57.152;-2.118;2022-09-09T06:34:19;14.10;99.90
27645;DHT22;15054;57.152;-2.118;2022-09-09T06:36:49;14.10;99.90
27645;DHT22;15054;57.152;-2.118;2022-09-09T06:39:20;14.10;99.90
27645;DHT22;15054;57.152;-2.118;2022-09-09T06:41:49;14.10;99.90
27645;DHT22;15054;57.152;-2.118;2022-09-09T06:44:45;14.10;99.90
27645;DHT22;15054;57.152;-2.118;2022-09-09T06:47:28;14.10;99.90
27645;DHT22;15054;57.152;-2.118;2022-09-09T06:49:57;14.20;99.90
27645;DHT22;15054;57.152;-2.118;2022-09-09T06:52:25;14.20;99.90
27645;DHT22;15054;57.152;-2.118;2022-09-09T06:54:55;14.30;99.90
27645;DHT22;15054;57.152;-2.118;2022-09-09T06:57:22;14.30;99.90
27645;DHT22;15054;57.152;-2.118;2022-09-09T07:00:06;14.40;99.90
27645;DHT22;15054;57.152;-2.118;2022-09-09T07:02:34;14.40;99.90
27645;DHT22;15054;57.152;-2.118;2022-09-09T07:05:09;14.40;99.90
27645;DHT22;15054;57.152;-2.118;2022-09-09T07:07:38;14.40;99.90
27645;DHT22;15054;57.152;-2.118;2022-09-09T07:10:07;14.50;99.90
27645;DHT22;15054;57.152;-2.118;2022-09-09T07:12:36;14.50;99.90
27645;DHT22;15054;57.152;-2.118;2022-09-09T07:15:05;14.50;99.90
27645;DHT22;15054;57.152;-2.118;2022-09-09T07:17:33;14.50;99.90
27645;DHT22;15054;57.152;-2.118;2022-09-09T07:20:00;14.50;99.90
27645;DHT22;15054;57.152;-2.118;2022-09-09T07:22:31;14.50;99.90
27645;DHT22;15054;57.152;-2.118;2022-09-09T07:25:00;14.50;99.90
27645;DHT22;15054;57.152;-2.118;2022-09-09T07:27:29;14.60;99.90
27645;DHT22;15054;57.152;-2.118;2022-09-09T07:29:57;14.70;99.90
27645;DHT22;15054;57.152;-2.118;2022-09-09T07:32:25;14.60;99.90
27645;DHT22;15054;57.152;-2.118;2022-09-09T07:34:57;14.60;99.90
27645;DHT22;15054;57.152;-2.118;2022-09-09T07:37:27;14.70;99.90
27645;DHT22;15054;57.152;-2.118;2022-09-09T07:39:54;14.80;99.90
27645;DHT22;15054;57.152;-2.118;2022-09-09T07:42:23;14.80;99.90
27645;DHT22;15054;57.152;-2.118;2022-09-09T07:44:50;14.90;99.90
27645;DHT22;15054;57.152;-2.118;2022-09-09T07:47:21;14.90;99.90
27645;DHT22;15054;57.152;-2.118;2022-09-09T07:49:50;14.90;99.90
27645;DHT22;15054;57.152;-2.118;2022-09-09T07:52:25;14.90;99.90
27645;DHT22;15054;57.152;-2.118;2022-09-09T07:54:58;14.90;99.90
27645;DHT22;15054;57.152;-2.118;2022-09-09T07:57:31;14.90;99.90
27645;DHT22;15054;57.152;-2.118;2022-09-09T07:59:58;14.90;99.90
27645;DHT22;15054;57.152;-2.118;2022-09-09T08:02:26;15.00;99.90
27645;DHT22;15054;57.152;-2.118;2022-09-09T08:04:58;15.00;99.90
27645;DHT22;15054;57.152;-2.118;2022-09-09T08:07:25;15.10;99.90
27645;DHT22;15054;57.152;-2.118;2022-09-09T08:09:54;15.20;99.90
27645;DHT22;15054;57.152;-2.118;2022-09-09T08:12:27;15.30;99.90
27645;DHT22;15054;57.152;-2.118;2022-09-09T08:14:57;15.30;99.90
27645;DHT22;15054;57.152;-2.118;2022-09-09T08:17:28;15.40;99.90
27645;DHT22;15054;57.152;-2.118;2022-09-09T08:19:58;15.50;99.90
27645;DHT22;15054;57.152;-2.118;2022-09-09T08:22:30;15.40;99.90
27645;DHT22;15054;57.152;-2.118;2022-09-09T08:24:59;15.50;99.90
27645;DHT22;15054;57.152;-2.118;2022-09-09T08:27:31;15.50;99.90
27645;DHT22;15054;57.152;-2.118;2022-09-09T08:29:59;15.40;99.90
27645;DHT22;15054;57.152;-2.118;2022-09-09T08:32:27;15.30;99.90
27645;DHT22;15054;57.152;-2.118;2022-09-09T08:34:55;15.30;99.90
27645;DHT22;15054;57.152;-2.118;2022-09-09T08:37:27;15.30;99.90
27645;DHT22;15054;57.152;-2.118;2022-09-09T08:39:56;15.30;99.90
27645;DHT22;15054;57.152;-2.118;2022-09-09T08:42:40;15.50;99.90
27645;DHT22;15054;57.152;-2.118;2022-09-09T08:46:26;15.60;99.90
27645;DHT22;15054;57.152;-2.118;2022-09-09T08:48:29;15.70;99.90
27645;DHT22;15054;57.152;-2.118;2022-09-09T08:51:03;15.80;99.90
27645;DHT22;15054;57.152;-2.118;2022-09-09T08:53:44;15.80;99.90
27645;DHT22;15054;57.152;-2.118;2022-09-09T08:56:19;15.90;99.90
27645;DHT22;15054;57.152;-2.118;2022-09-09T08:58:54;15.90;99.90
27645;DHT22;15054;57.152;-2.118;2022-09-09T09:05:23;16.00;99.90
27645;DHT22;15054;57.152;-2.118;2022-09-09T09:10:49;16.20;99.90
27645;DHT22;15054;57.152;-2.118;2022-09-09T09:16:00;16.40;99.90
27645;DHT22;15054;57.152;-2.118;2022-09-09T09:18:29;16.30;99.90
27645;DHT22;15054;57.152;-2.118;2022-09-09T09:21:16;16.30;99.90
27645;DHT22;15054;57.152;-2.118;2022-09-09T09:24:00;16.20;99.90
27645;DHT22;15054;57.152;-2.118;2022-09-09T09:26:34;16.10;99.90
27645;DHT22;15054;57.152;-2.118;2022-09-09T09:29:11;16.10;99.90
27645;DHT22;15054;57.152;-2.118;2022-09-09T09:31:45;15.90;99.90
27645;DHT22;15054;57.152;-2.118;2022-09-09T09:34:15;15.80;99.90
27645;DHT22;15054;57.152;-2.118;2022-09-09T09:36:52;15.70;99.90
27645;DHT22;15054;57.152;-2.118;2022-09-09T09:39:29;15.60;99.90
27645;DHT22;15054;57.152;-2.118;2022-09-09T09:42:17;15.50;99.90
27645;DHT22;15054;57.152;-2.118;2022-09-09T09:44:50;15.50;99.90
27645;DHT22;15054;57.152;-2.118;2022-09-09T09:47:21;15.40;99.90
27645;DHT22;15054;57.152;-2.118;2022-09-09T09:50:03;15.30;99.90
27645;DHT22;15054;57.152;-2.118;2022-09-09T09:52:36;15.20;99.90
27645;DHT22;15054;57.152;-2.118;2022-09-09T09:55:13;15.20;99.90
27645;DHT22;15054;57.152;-2.118;2022-09-09T09:57:43;15.20;99.90
27645;DHT22;15054;57.152;-2.118;2022-09-09T10:00:19;15.30;99.90
27645;DHT22;15054;57.152;-2.118;2022-09-09T10:02:55;15.30;99.90
27645;DHT22;15054;57.152;-2.118;2022-09-09T10:05:30;15.30;99.90
27645;DHT22;15054;57.152;-2.118;2022-09-09T10:08:11;15.40;99.90
27645;DHT22;15054;57.152;-2.118;2022-09-09T10:19:16;15.60;99.90
27645;DHT22;15054;57.152;-2.118;2022-09-09T10:27:37;15.70;99.90
27645;DHT22;15054;57.152;-2.118;2022-09-09T10:35:34;15.70;99.90
27645;DHT22;15054;57.152;-2.118;2022-09-09T10:38:11;15.70;99.90
27645;DHT22;15054;57.152;-2.118;2022-09-09T10:49:32;15.70;99.90
27645;DHT22;15054;57.152;-2.118;2022-09-09T10:52:17;15.70;99.90
27645;DHT22;15054;57.152;-2.118;2022-09-09T10:58:10;15.60;99.90
27645;DHT22;15054;57.152;-2.118;2022-09-09T11:00:51;15.60;99.90
27645;DHT22;15054;57.152;-2.118;2022-09-09T11:03:26;15.60;99.90
27645;DHT22;15054;57.152;-2.118;2022-09-09T11:06:19;15.60;99.90
27645;DHT22;15054;57.152;-2.118;2022-09-09T11:08:48;15.80;99.90
27645;DHT22;15054;57.152;-2.118;2022-09-09T11:11:36;15.80;99.90
27645;DHT22;15054;57.152;-2.118;2022-09-09T11:14:53;16.00;99.90
27645;DHT22;15054;57.152;-2.118;2022-09-09T11:17:24;16.20;99.90
27645;DHT22;15054;57.152;-2.118;2022-09-09T11:19:54;16.30;99.90
27645;DHT22;15054;57.152;-2.118;2022-09-09T11:22:37;16.40;99.90
27645;DHT22;15054;57.152;-2.118;2022-09-09T11:25:35;16.40;99.90
27645;DHT22;15054;57.152;-2.118;2022-09-09T11:31:33;16.40;99.90
27645;DHT22;15054;57.152;-2.118;2022-09-09T11:34:33;16.60;99.90
27645;DHT22;15054;57.152;-2.118;2022-09-09T11:40:16;16.60;99.90
27645;DHT22;15054;57.152;-2.118;2022-09-09T11:42:46;16.80;99.90
27645;DHT22;15054;57.152;-2.118;2022-09-09T11:45:26;17.00;99.90
27645;DHT22;15054;57.152;-2.118;2022-09-09T11:48:01;17.10;99.90
27645;DHT22;15054;57.152;-2.118;2022-09-09T11:50:31;17.20;99.90
27645;DHT22;15054;57.152;-2.118;2022-09-09T11:53:20;17.30;99.90
27645;DHT22;15054;57.152;-2.118;2022-09-09T11:56:09;17.40;99.90
27645;DHT22;15054;57.152;-2.118;2022-09-09T11:58:42;17.60;99.90
27645;DHT22;15054;57.152;-2.118;2022-09-09T12:06:43;17.60;99.90
27645;DHT22;15054;57.152;-2.118;2022-09-09T12:09:46;17.50;99.90
27645;DHT22;15054;57.152;-2.118;2022-09-09T12:17:51;17.70;99.90
27645;DHT22;15054;57.152;-2.118;2022-09-09T12:20:34;17.60;99.90
27645;DHT22;15054;57.152;-2.118;2022-09-09T12:23:46;17.60;99.90
27645;DHT22;15054;57.152;-2.118;2022-09-09T12:32:22;17.20;99.90
27645;DHT22;15054;57.152;-2.118;2022-09-09T12:35:07;17.20;99.90
27645;DHT22;15054;57.152;-2.118;2022-09-09T12:37:49;17.00;99.90
27645;DHT22;15054;57.152;-2.118;2022-09-09T12:40:26;17.00;99.90
27645;DHT22;15054;57.152;-2.118;2022-09-09T12:42:54;16.80;99.90
27645;DHT22;15054;57.152;-2.118;2022-09-09T12:45:28;16.70;99.90
27645;DHT22;15054;57.152;-2.118;2022-09-09T12:48:08;16.70;99.90
27645;DHT22;15054;57.152;-2.118;2022-09-09T12:50:52;16.50;99.90
27645;DHT22;15054;57.152;-2.118;2022-09-09T12:53:35;16.50;99.90
27645;DHT22;15054;57.152;-2.118;2022-09-09T12:56:08;16.50;99.90
27645;DHT22;15054;57.152;-2.118;2022-09-09T12:58:38;16.50;99.90
27645;DHT22;15054;57.152;-2.118;2022-09-09T13:01:22;16.50;99.90
27645;DHT22;15054;57.152;-2.118;2022-09-09T13:03:51;16.40;99.90
27645;DHT22;15054;57.152;-2.118;2022-09-09T13:06:30;16.40;99.90
27645;DHT22;15054;57.152;-2.118;2022-09-09T13:08:59;16.50;99.90
27645;DHT22;15054;57.152;-2.118;2022-09-09T13:11:38;16.40;99.90
27645;DHT22;15054;57.152;-2.118;2022-09-09T13:14:30;16.30;99.90
27645;DHT22;15054;57.152;-2.118;2022-09-09T13:17:01;16.30;99.90
27645;DHT22;15054;57.152;-2.118;2022-09-09T13:19:34;16.20;99.90
27645;DHT22;15054;57.152;-2.118;2022-09-09T13:22:14;16.20;99.90
27645;DHT22;15054;57.152;-2.118;2022-09-09T13:24:46;16.10;99.90
27645;DHT22;15054;57.152;-2.118;2022-09-09T13:27:28;16.10;99.90
27645;DHT22;15054;57.152;-2.118;2022-09-09T13:29:56;16.00;99.90
27645;DHT22;15054;57.152;-2.118;2022-09-09T13:32:25;15.90;99.90
27645;DHT22;15054;57.152;-2.118;2022-09-09T13:35:00;16.00;99.90
27645;DHT22;15054;57.152;-2.118;2022-09-09T13:37:36;15.90;99.90
27645;DHT22;15054;57.152;-2.118;2022-09-09T13:40:17;16.00;99.90
27645;DHT22;15054;57.152;-2.118;2022-09-09T13:42:45;15.90;99.90
27645;DHT22;15054;57.152;-2.118;2022-09-09T13:45:19;15.90;99.90
27645;DHT22;15054;57.152;-2.118;2022-09-09T13:47:48;15.90;99.90
27645;DHT22;15054;57.152;-2.118;2022-09-09T13:50:25;15.90;99.90
27645;DHT22;15054;57.152;-2.118;2022-09-09T13:52:57;15.80;99.90
27645;DHT22;15054;57.152;-2.118;2022-09-09T13:55:27;15.80;99.90
27645;DHT22;15054;57.152;-2.118;2022-09-09T13:57:56;15.90;99.90
27645;DHT22;15054;57.152;-2.118;2022-09-09T14:00:25;15.80;99.90
27645;DHT22;15054;57.152;-2.118;2022-09-09T14:02:52;15.90;99.90
27645;DHT22;15054;57.152;-2.118;2022-09-09T14:05:22;15.90;99.90
27645;DHT22;15054;57.152;-2.118;2022-09-09T14:07:50;15.90;99.90
27645;DHT22;15054;57.152;-2.118;2022-09-09T14:10:19;15.90;99.90
27645;DHT22;15054;57.152;-2.118;2022-09-09T14:12:47;15.90;99.90
27645;DHT22;15054;57.152;-2.118;2022-09-09T14:15:14;15.90;99.90
27645;DHT22;15054;57.152;-2.118;2022-09-09T14:17:41;15.80;99.90
27645;DHT22;15054;57.152;-2.118;2022-09-09T14:20:10;15.80;99.90
27645;DHT22;15054;57.152;-2.118;2022-09-09T14:22:39;15.90;99.90
27645;DHT22;15054;57.152;-2.118;2022-09-09T14:25:08;15.90;99.90
27645;DHT22;15054;57.152;-2.118;2022-09-09T14:27:35;15.80;99.90
27645;DHT22;15054;57.152;-2.118;2022-09-09T14:30:02;15.80;99.90
27645;DHT22;15054;57.152;-2.118;2022-09-09T14:32:30;15.80;99.90
27645;DHT22;15054;57.152;-2.118;2022-09-09T14:34:57;15.70;99.90
27645;DHT22;15054;57.152;-2.118;2022-09-09T14:37:24;15.70;99.90
27645;DHT22;15054;57.152;-2.118;2022-09-09T14:39:52;15.80;99.90
27645;DHT22;15054;57.152;-2.118;2022-09-09T14:42:24;15.80;99.90
27645;DHT22;15054;57.152;-2.118;2022-09-09T14:44:51;15.80;99.90
27645;DHT22;15054;57.152;-2.118;2022-09-09T14:47:19;15.80;99.90
27645;DHT22;15054;57.152;-2.118;2022-09-09T14:49:46;15.80;99.90
27645;DHT22;15054;57.152;-2.118;2022-09-09T14:52:16;15.80;99.90
27645;DHT22;15054;57.152;-2.118;2022-09-09T14:54:44;15.80;99.90
27645;DHT22;15054;57.152;-2.118;2022-09-09T14:57:11;15.80;99.90
27645;DHT22;15054;57.152;-2.118;2022-09-09T14:59:38;15.80;99.90
27645;DHT22;15054;57.152;-2.118;2022-09-09T15:02:08;15.80;99.90
27645;DHT22;15054;57.152;-2.118;2022-09-09T15:04:36;15.70;99.90
27645;DHT22;15054;57.152;-2.118;2022-09-09T15:07:03;15.60;99.90
27645;DHT22;15054;57.152;-2.118;2022-09-09T15:09:32;15.60;99.90
27645;DHT22;15054;57.152;-2.118;2022-09-09T15:11:59;15.60;99.90
27645;DHT22;15054;57.152;-2.118;2022-09-09T15:14:27;15.50;99.90
27645;DHT22;15054;57.152;-2.118;2022-09-09T15:16:58;15.50;99.90
27645;DHT22;15054;57.152;-2.118;2022-09-09T15:19:27;15.50;99.90
27645;DHT22;15054;57.152;-2.118;2022-09-09T15:21:59;15.50;99.90
27645;DHT22;15054;57.152;-2.118;2022-09-09T15:24:27;15.40;99.90
27645;DHT22;15054;57.152;-2.118;2022-09-09T15:26:55;15.50;99.90
27645;DHT22;15054;57.152;-2.118;2022-09-09T15:29:23;15.40;99.90
27645;DHT22;15054;57.152;-2.118;2022-09-09T15:31:51;15.30;99.90
27645;DHT22;15054;57.152;-2.118;2022-09-09T15:34:18;15.40;99.90
27645;DHT22;15054;57.152;-2.118;2022-09-09T15:36:46;15.30;99.90
27645;DHT22;15054;57.152;-2.118;2022-09-09T15:39:16;15.20;99.90
27645;DHT22;15054;57.152;-2.118;2022-09-09T15:41:45;15.20;99.90
27645;DHT22;15054;57.152;-2.118;2022-09-09T15:44:14;15.20;99.90
27645;DHT22;15054;57.152;-2.118;2022-09-09T15:46:51;15.20;99.90
27645;DHT22;15054;57.152;-2.118;2022-09-09T15:49:24;15.10;99.90
27645;DHT22;15054;57.152;-2.118;2022-09-09T15:51:54;15.10;99.90
27645;DHT22;15054;57.152;-2.118;2022-09-09T15:54:22;15.10;99.90
27645;DHT22;15054;57.152;-2.118;2022-09-09T15:56:55;15.20;99.90
27645;DHT22;15054;57.152;-2.118;2022-09-09T15:59:24;15.10;99.90
27645;DHT22;15054;57.152;-2.118;2022-09-09T16:01:53;15.10;99.90
27645;DHT22;15054;57.152;-2.118;2022-09-09T16:04:23;15.10;99.90
27645;DHT22;15054;57.152;-2.118;2022-09-09T16:06:55;15.00;99.90
27645;DHT22;15054;57.152;-2.118;2022-09-09T16:09:22;15.10;99.90
27645;DHT22;15054;57.152;-2.118;2022-09-09T16:11:52;15.00;99.90
27645;DHT22;15054;57.152;-2.118;2022-09-09T16:14:21;15.00;99.90
27645;DHT22;15054;57.152;-2.118;2022-09-09T16:16:48;15.00;99.90
27645;DHT22;15054;57.152;-2.118;2022-09-09T16:19:16;15.00;99.90
27645;DHT22;15054;57.152;-2.118;2022-09-09T16:21:49;15.00;99.90
27645;DHT22;15054;57.152;-2.118;2022-09-09T16:24:19;15.00;99.90
27645;DHT22;15054;57.152;-2.118;2022-09-09T16:26:49;15.00;99.90
27645;DHT22;15054;57.152;-2.118;2022-09-09T16:29:19;14.90;99.90
27645;DHT22;15054;57.152;-2.118;2022-09-09T16:31:48;14.90;99.90
27645;DHT22;15054;57.152;-2.118;2022-09-09T16:34:17;14.90;99.90
27645;DHT22;15054;57.152;-2.118;2022-09-09T16:36:46;14.90;99.90
27645;DHT22;15054;57.152;-2.118;2022-09-09T16:39:16;14.90;99.90
27645;DHT22;15054;57.152;-2.118;2022-09-09T16:41:44;14.90;99.90
27645;DHT22;15054;57.152;-2.118;2022-09-09T16:44:14;14.90;99.90
27645;DHT22;15054;57.152;-2.118;2022-09-09T16:46:43;14.90;99.90
27645;DHT22;15054;57.152;-2.118;2022-09-09T16:49:12;14.90;99.90
27645;DHT22;15054;57.152;-2.118;2022-09-09T16:51:45;15.00;99.90
27645;DHT22;15054;57.152;-2.118;2022-09-09T16:54:17;15.00;99.90
27645;DHT22;15054;57.152;-2.118;2022-09-09T16:56:47;15.10;99.90
27645;DHT22;15054;57.152;-2.118;2022-09-09T16:59:19;15.00;99.90
27645;DHT22;15054;57.152;-2.118;2022-09-09T17:01:48;15.00;99.90
27645;DHT22;15054;57.152;-2.118;2022-09-09T17:04:19;15.00;99.90
27645;DHT22;15054;57.152;-2.118;2022-09-09T17:06:52;14.90;99.90
27645;DHT22;15054;57.152;-2.118;2022-09-09T17:09:21;14.90;99.90
27645;DHT22;15054;57.152;-2.118;2022-09-09T17:11:49;14.90;99.90
27645;DHT22;15054;57.152;-2.118;2022-09-09T17:14:20;14.80;99.90
27645;DHT22;15054;57.152;-2.118;2022-09-09T17:16:51;14.70;99.90
27645;DHT22;15054;57.152;-2.118;2022-09-09T17:19:21;14.70;99.90
27645;DHT22;15054;57.152;-2.118;2022-09-09T17:21:48;14.70;99.90
27645;DHT22;15054;57.152;-2.118;2022-09-09T17:24:36;14.60;99.90
27645;DHT22;15054;57.152;-2.118;2022-09-09T17:27:05;14.60;99.90
27645;DHT22;15054;57.152;-2.118;2022-09-09T17:29:33;14.50;99.90
27645;DHT22;15054;57.152;-2.118;2022-09-09T17:32:03;14.50;99.90
27645;DHT22;15054;57.152;-2.118;2022-09-09T17:34:31;14.40;99.90
27645;DHT22;15054;57.152;-2.118;2022-09-09T17:36:58;14.30;99.90
27645;DHT22;15054;57.152;-2.118;2022-09-09T17:39:26;14.30;99.90
27645;DHT22;15054;57.152;-2.118;2022-09-09T17:41:53;14.30;99.90
27645;DHT22;15054;57.152;-2.118;2022-09-09T17:44:21;14.20;99.90